Time;durP1;ratioP1;P1;durP2;ratioP2;P2;SDS_P1;SDS_P2;PMS_P1;PMS_P2;Temp;Humidity;BMP_temperature;BMP_pressure;BME280_temperature;BME280_humidity;BME280_pressure;Samples;Min_cycle;Max_cycle;Signal;HPM_P1;HPM_P2
2022/09/11 00:00:35;;;;;;;5.03;2.20;;;;;;;15.67;84.16;100780.69;5072101;28;20557;-71
2022/09/11 00:03:01;;;;;;;5.70;2.50;;;;;;;15.62;83.76;100790.03;5077532;28;20099;-71
2022/09/11 00:05:26;;;;;;;3.75;2.17;;;;;;;15.59;83.72;100779.50;5093661;28;20035;-71
2022/09/11 00:07:52;;;;;;;3.25;2.10;;;;;;;15.63;84.10;100788.91;5077334;28;20039;-71
2022/09/11 00:10:18;;;;;;;3.95;1.95;;;;;;;15.58;83.92;100789.88;5057903;28;20036;-71
2022/09/11 00:12:43;;;;;;;3.30;2.15;;;;;;;15.51;83.78;100783.06;5076072;28;20059;-71
2022/09/11 00:15:09;;;;;;;5.55;2.30;;;;;;;15.47;84.35;100771.69;5091728;28;20038;-71
2022/09/11 00:17:34;;;;;;;3.30;2.10;;;;;;;15.46;84.18;100778.47;5076596;28;20085;-71
2022/09/11 00:20:01;;;;;;;3.92;2.20;;;;;;;15.47;85.47;100779.28;5093586;28;20057;-71
2022/09/11 00:22:26;;;;;;;5.80;2.15;;;;;;;15.38;84.70;100774.44;5095757;28;20085;-71
2022/09/11 00:24:52;;;;;;;3.38;1.95;;;;;;;15.39;84.58;100781.69;5060046;28;20032;-71
2022/09/11 00:27:18;;;;;;;4.25;2.03;;;;;;;15.35;84.94;100783.50;5059124;28;20040;-71
2022/09/11 00:29:43;;;;;;;3.40;1.95;;;;;;;15.32;84.74;100770.13;5074034;28;20036;-71
2022/09/11 00:32:09;;;;;;;3.97;1.83;;;;;;;15.30;84.61;100766.00;5095866;28;20422;-71
2022/09/11 00:34:35;;;;;;;3.15;2.22;;;;;;;15.31;85.01;100768.47;5075822;28;20110;-71
2022/09/11 00:37:02;;;;;;;4.78;2.30;;;;;;;15.28;85.13;100771.09;5092493;28;20064;-71
2022/09/11 00:39:27;;;;;;;5.35;2.67;;;;;;;15.28;85.13;100765.50;5095036;28;20115;-71
2022/09/11 00:41:54;;;;;;;4.18;2.20;;;;;;;15.23;85.12;100755.25;5094136;28;20032;-71
2022/09/11 00:44:19;;;;;;;3.75;2.20;;;;;;;15.23;85.81;100762.81;5073919;28;20039;-71
2022/09/11 00:46:50;;;;;;;3.75;2.08;;;;;;;15.21;85.43;100757.56;5076741;28;20032;-71
2022/09/11 00:49:21;;;;;;;3.63;2.20;;;;;;;15.21;85.25;100757.56;5057520;28;20029;-71
2022/09/11 00:51:50;;;;;;;3.60;2.10;;;;;;;15.19;85.15;100751.44;5072506;28;20033;-71
2022/09/11 00:54:18;;;;;;;3.08;2.00;;;;;;;15.17;85.88;100753.75;5054345;28;20028;-71
2022/09/11 00:56:43;;;;;;;5.00;2.00;;;;;;;15.17;85.94;100748.13;5058783;28;20032;-71
2022/09/11 00:59:08;;;;;;;5.45;2.20;;;;;;;15.14;86.01;100745.97;5086603;28;20036;-71
2022/09/11 01:01:34;;;;;;;4.00;2.15;;;;;;;15.11;86.42;100752.22;5094331;28;20043;-71
2022/09/11 01:04:04;;;;;;;6.93;2.30;;;;;;;15.09;86.99;100743.31;5077298;28;20508;-71
2022/09/11 01:06:31;;;;;;;4.63;2.40;;;;;;;15.06;86.53;100738.34;5091799;28;20024;-71
2022/09/11 01:08:58;;;;;;;3.72;2.22;;;;;;;15.04;86.75;100744.25;5077543;28;20659;-71
2022/09/11 01:11:23;;;;;;;4.40;2.25;;;;;;;15.02;86.27;100748.53;5076005;28;20020;-71
2022/09/11 01:13:48;;;;;;;3.70;2.17;;;;;;;15.02;86.71;100745.75;5091432;28;20057;-71
2022/09/11 01:16:52;;;;;;;5.25;2.50;;;;;;;14.99;86.41;100733.22;5077133;28;20041;-71
2022/09/11 01:19:33;;;;;;;5.47;2.95;;;;;;;15.00;86.74;100731.25;5090362;28;20078;-71
2022/09/11 01:22:19;;;;;;;4.78;2.50;;;;;;;14.95;86.79;100732.19;5094935;28;20043;-71
2022/09/11 01:25:01;;;;;;;5.38;2.95;;;;;;;14.91;86.63;100726.41;5093122;28;20032;-71
2022/09/11 01:27:40;;;;;;;3.97;2.60;;;;;;;14.87;86.96;100728.19;5075715;28;20035;-71
2022/09/11 01:30:07;;;;;;;3.85;2.80;;;;;;;14.85;87.44;100727.69;5080727;28;20522;-71
2022/09/11 01:32:39;;;;;;;4.28;2.80;;;;;;;14.88;86.98;100723.44;5080312;28;20035;-71
2022/09/11 01:35:26;;;;;;;5.05;2.47;;;;;;;14.82;86.93;100721.88;5087941;28;20031;-71
2022/09/11 01:37:54;;;;;;;5.05;2.88;;;;;;;14.83;87.63;100724.38;5098488;28;20032;-71
2022/09/11 01:41:10;;;;;;;4.85;2.53;;;;;;;14.82;87.35;100728.34;5061495;28;20036;-71
2022/09/11 01:44:02;;;;;;;4.82;2.40;;;;;;;14.81;87.33;100712.69;5066126;28;20037;-71
2022/09/11 01:46:28;;;;;;;16.70;3.00;;;;;;;14.80;87.69;100713.84;5066773;28;20054;-71
2022/09/11 01:49:07;;;;;;;5.22;2.08;;;;;;;14.79;87.36;100712.16;5027722;28;20025;-71
2022/09/11 01:51:33;;;;;;;8.50;2.58;;;;;;;14.82;87.84;100710.72;5069029;28;20047;-71
2022/09/11 01:53:59;;;;;;;3.40;2.30;;;;;;;14.79;88.47;100714.16;5061995;28;20028;-71
2022/09/11 01:56:28;;;;;;;5.78;2.97;;;;;;;14.81;88.81;100718.28;5076559;28;20016;-71
2022/09/11 01:58:56;;;;;;;7.70;2.67;;;;;;;14.80;89.35;100710.22;5080050;28;20032;-71
2022/09/11 02:01:23;;;;;;;5.03;2.70;;;;;;;14.79;89.37;100711.34;5062763;28;20038;-71
2022/09/11 02:03:55;;;;;;;4.50;2.40;;;;;;;14.81;88.91;100720.25;5063705;28;20039;-71
2022/09/11 02:06:32;;;;;;;4.88;2.42;;;;;;;14.81;89.14;100717.44;5075802;28;20032;-71
2022/09/11 02:09:08;;;;;;;6.00;2.40;;;;;;;14.80;89.14;100719.44;5048757;28;20103;-71
2022/09/11 02:11:36;;;;;;;4.70;2.58;;;;;;;14.82;89.72;100713.50;5076078;28;20024;-71
2022/09/11 02:14:05;;;;;;;4.40;2.80;;;;;;;14.84;89.99;100723.22;5052363;28;20035;-71
2022/09/11 02:16:51;;;;;;;4.93;2.40;;;;;;;14.83;90.05;100717.97;5098265;28;20050;-71
2022/09/11 02:19:25;;;;;;;5.05;2.58;;;;;;;14.82;90.98;100724.69;5078268;28;20032;-71
2022/09/11 02:21:50;;;;;;;4.82;2.63;;;;;;;14.84;91.01;100725.22;5061684;28;20092;-71
2022/09/11 02:24:16;;;;;;;4.80;2.20;;;;;;;14.86;89.00;100722.91;5079180;28;20432;-71
2022/09/11 02:26:44;;;;;;;6.15;2.63;;;;;;;14.88;89.52;100718.66;5081027;28;20028;-71
2022/09/11 02:29:10;;;;;;;5.18;2.45;;;;;;;14.86;89.05;100726.53;5075749;28;20036;-71
2022/09/11 02:31:36;;;;;;;4.38;2.72;;;;;;;14.81;89.18;100721.06;5057857;28;20028;-71
2022/09/11 02:34:01;;;;;;;4.78;2.78;;;;;;;14.83;90.07;100727.19;5094459;28;20078;-71
2022/09/11 02:36:31;;;;;;;4.45;2.45;;;;;;;14.83;90.08;100727.19;5097598;28;21281;-71
2022/09/11 02:39:21;;;;;;;4.07;2.47;;;;;;;14.81;89.50;100723.03;5096189;28;20691;-71
2022/09/11 02:42:20;;;;;;;4.22;2.40;;;;;;;14.83;90.02;100724.38;5092997;28;20028;-71
2022/09/11 02:45:07;;;;;;;5.28;2.30;;;;;;;14.79;90.29;100731.75;5080276;28;20028;-71
2022/09/11 02:48:01;;;;;;;4.95;2.60;;;;;;;14.77;90.12;100734.03;5092751;28;20040;-71
2022/09/11 02:50:48;;;;;;;;;;;;;;;14.78;91.04;100723.69;5091861;28;20091;-71
2022/09/11 02:53:19;;;;;;;6.15;2.22;;;;;;;14.76;90.61;100718.41;5072813;28;20574;-71
2022/09/11 02:56:12;;;;;;;6.30;2.40;;;;;;;14.75;90.84;100727.94;5062561;28;20043;-71
2022/09/11 02:58:45;;;;;;;4.13;2.17;;;;;;;14.73;90.87;100724.63;5074466;28;20125;-71
2022/09/11 03:01:10;;;;;;;8.05;2.60;;;;;;;14.75;91.28;100716.75;5076981;28;20066;-71
2022/09/11 03:03:41;;;;;;;5.63;2.00;;;;;;;14.71;90.27;100707.38;5097150;28;20032;-71
2022/09/11 03:06:14;;;;;;;5.60;2.22;;;;;;;14.72;90.10;100709.00;5096153;28;20029;-71
2022/09/11 03:08:39;;;;;;;3.63;2.20;;;;;;;14.70;91.25;100708.50;5061968;28;20056;-71
2022/09/11 03:11:05;;;;;;;4.00;2.22;;;;;;;14.71;90.87;100710.16;5094202;28;20480;-71
2022/09/11 03:13:31;;;;;;;6.05;2.42;;;;;;;14.71;91.82;100707.38;5078782;28;20032;-71
2022/09/11 03:15:59;;;;;;;5.00;2.50;;;;;;;14.70;91.16;100703.72;5095478;28;20537;-71
2022/09/11 03:18:24;;;;;;;4.70;2.25;;;;;;;14.69;91.20;100695.66;5075736;28;20099;-71
2022/09/11 03:20:50;;;;;;;8.65;2.53;;;;;;;14.66;91.45;100697.13;5096980;28;20061;-71
2022/09/11 03:23:16;;;;;;;4.53;2.33;;;;;;;14.63;92.57;100691.34;5076491;28;20032;-71
2022/09/11 03:25:41;;;;;;;4.18;2.10;;;;;;;14.63;92.30;100696.94;5074691;28;20024;-71
2022/09/11 03:28:07;;;;;;;5.88;2.50;;;;;;;14.64;92.37;100696.59;5096715;28;20031;-71
2022/09/11 03:30:33;;;;;;;4.80;2.30;;;;;;;14.63;92.29;100697.75;5076219;28;20029;-71
2022/09/11 03:32:59;;;;;;;5.03;2.78;;;;;;;14.63;91.70;100699.72;5096715;28;20036;-71
2022/09/11 03:35:26;;;;;;;3.50;2.13;;;;;;;14.60;93.01;100695.59;5091784;28;20241;-71
2022/09/11 03:37:52;;;;;;;3.95;2.10;;;;;;;14.60;93.07;100703.13;5096371;28;20035;-71
2022/09/11 03:40:19;;;;;;;6.45;2.70;;;;;;;14.58;93.14;100706.25;5075627;28;20054;-71
2022/09/11 03:42:44;;;;;;;7.35;2.63;;;;;;;14.56;94.49;100700.16;5094130;28;20043;-71
2022/09/11 03:45:10;;;;;;;6.93;2.63;;;;;;;14.56;93.88;100697.34;5076770;28;20028;-71
2022/09/11 03:47:36;;;;;;;5.70;2.50;;;;;;;14.53;92.75;100698.81;5072449;28;20024;-71
2022/09/11 03:50:02;;;;;;;5.10;2.63;;;;;;;14.56;92.81;100690.94;5076425;28;20024;-71
2022/09/11 03:52:29;;;;;;;4.93;2.50;;;;;;;14.49;92.31;100689.41;5075219;28;20495;-71
2022/09/11 03:54:54;;;;;;;6.30;2.78;;;;;;;14.48;92.39;100684.09;5092404;28;20052;-71
2022/09/11 03:57:20;;;;;;;4.38;2.53;;;;;;;14.49;92.46;100675.44;5087028;28;20071;-71
2022/09/11 03:59:45;;;;;;;5.95;3.03;;;;;;;14.41;93.74;100678.97;5071285;28;20083;-71
2022/09/11 04:02:11;;;;;;;3.78;2.88;;;;;;;14.42;92.15;100669.44;5092988;28;20039;-71
2022/09/11 04:04:36;;;;;;;6.30;3.35;;;;;;;14.39;91.29;100674.84;5096010;28;20024;-71
2022/09/11 04:07:02;;;;;;;4.18;3.22;;;;;;;14.37;91.89;100672.34;5094148;28;20036;-71
2022/09/11 04:09:27;;;;;;;4.15;3.10;;;;;;;14.34;91.66;100677.75;5073824;28;20029;-71
2022/09/11 04:11:53;;;;;;;6.45;3.20;;;;;;;14.30;91.88;100678.38;5095743;28;20032;-71
2022/09/11 04:14:21;;;;;;;4.25;2.70;;;;;;;14.31;91.12;100673.63;5094595;28;20032;-71
2022/09/11 04:16:46;;;;;;;4.95;2.65;;;;;;;14.30;90.53;100671.97;5092692;28;20047;-71
2022/09/11 04:19:12;;;;;;;5.15;2.53;;;;;;;14.27;91.07;100673.44;5077190;28;20024;-71
2022/09/11 04:21:38;;;;;;;5.25;2.83;;;;;;;14.23;90.88;100672.38;5057768;28;20036;-71
2022/09/11 04:24:04;;;;;;;2.67;2.30;;;;;;;14.21;91.55;100662.69;5092510;28;20028;-71
2022/09/11 04:26:30;;;;;;;5.72;2.45;;;;;;;14.18;91.30;100668.88;5061116;28;20057;-71
2022/09/11 04:28:57;;;;;;;4.97;2.83;;;;;;;14.18;91.46;100674.47;5060955;28;20020;-71
2022/09/11 04:31:22;;;;;;;3.60;2.45;;;;;;;14.16;90.95;100668.41;5092489;28;20125;-71
2022/09/11 04:33:48;;;;;;;3.47;2.30;;;;;;;14.10;91.17;100673.28;5077696;28;20031;-71
2022/09/11 04:36:18;;;;;;;2.80;2.20;;;;;;;14.12;91.15;100667.34;5076038;28;20035;-71
2022/09/11 04:38:44;;;;;;;3.95;2.45;;;;;;;14.12;91.09;100670.97;5053205;28;20052;-71
2022/09/11 04:41:10;;;;;;;3.90;2.58;;;;;;;14.06;91.07;100666.66;5075602;28;20032;-71
2022/09/11 04:43:37;;;;;;;4.60;2.10;;;;;;;14.04;91.39;100669.78;5093628;28;20538;-71
2022/09/11 04:46:13;;;;;;;4.40;2.30;;;;;;;14.02;91.60;100666.44;5092558;28;20096;-71
2022/09/11 04:48:48;;;;;;;5.72;2.13;;;;;;;14.00;93.04;100667.91;5078971;28;20028;-71
2022/09/11 04:51:27;;;;;;;4.85;2.47;;;;;;;13.96;92.26;100661.31;5094340;28;20499;-71
2022/09/11 04:53:56;;;;;;;5.88;2.50;;;;;;;13.98;93.17;100671.00;5054585;28;20067;-71
2022/09/11 04:56:22;;;;;;;3.65;2.42;;;;;;;13.96;92.61;100664.91;5077681;28;20028;-71
2022/09/11 04:58:58;;;;;;;3.85;2.28;;;;;;;13.98;93.17;100661.81;5095815;28;20052;-71
2022/09/11 05:01:25;;;;;;;4.40;2.15;;;;;;;13.95;93.90;100666.03;5074059;28;20493;-71
2022/09/11 05:03:51;;;;;;;7.85;2.53;;;;;;;13.93;93.37;100665.56;5092473;28;20055;-71
2022/09/11 05:06:16;;;;;;;4.63;2.40;;;;;;;13.94;93.49;100675.56;5063196;28;20053;-71
2022/09/11 05:08:43;;;;;;;4.95;2.50;;;;;;;13.96;92.92;100673.31;5077979;28;20663;-71
2022/09/11 05:11:13;;;;;;;5.43;2.53;;;;;;;13.93;92.58;100679.50;5099331;28;20107;-71
2022/09/11 05:13:39;;;;;;;3.55;2.42;;;;;;;13.85;92.41;100672.69;5097595;28;20491;-71
2022/09/11 05:16:09;;;;;;;4.95;2.60;;;;;;;13.88;92.55;100673.22;5054195;28;20025;-71
2022/09/11 05:18:39;;;;;;;5.07;2.70;;;;;;;13.84;92.66;100679.38;5072779;28;20050;-71
2022/09/11 05:21:12;;;;;;;5.10;2.45;;;;;;;13.83;92.12;100671.34;5074105;28;20432;-71
2022/09/11 05:23:38;;;;;;;4.88;2.30;;;;;;;13.81;92.05;100679.19;5080961;28;20028;-71
2022/09/11 05:26:04;;;;;;;4.68;2.30;;;;;;;13.82;92.14;100681.69;5098063;28;20491;-71
2022/09/11 05:28:30;;;;;;;4.35;2.08;;;;;;;13.81;91.98;100682.00;5078849;28;20028;-71
2022/09/11 05:30:55;;;;;;;6.13;2.10;;;;;;;13.79;92.12;100693.47;5081062;28;20034;-71
2022/09/11 05:33:24;;;;;;;3.30;2.00;;;;;;;13.75;91.94;100692.44;5080156;28;20034;-71
2022/09/11 05:35:50;;;;;;;3.65;2.13;;;;;;;13.73;91.63;100691.09;5096676;28;20039;-71
2022/09/11 05:38:17;;;;;;;3.40;1.80;;;;;;;13.72;91.38;100697.81;5067999;28;20553;-71
2022/09/11 05:40:44;;;;;;;2.88;2.13;;;;;;;13.67;91.73;100698.75;5098930;28;20434;-71
2022/09/11 05:43:11;;;;;;;5.38;1.98;;;;;;;13.66;92.00;100699.88;5096755;28;20143;-70
2022/09/11 05:45:36;;;;;;;3.75;1.83;;;;;;;13.64;91.89;100694.59;5080736;28;20028;-70
2022/09/11 05:48:02;;;;;;;5.85;2.20;;;;;;;13.61;92.17;100695.22;5078970;28;20024;-71
2022/09/11 05:50:30;;;;;;;3.17;2.10;;;;;;;13.58;91.63;100689.44;5077900;28;20032;-71
2022/09/11 05:52:56;;;;;;;2.25;1.88;;;;;;;13.59;91.96;100691.09;5098441;28;20032;-71
2022/09/11 05:55:21;;;;;;;3.10;1.73;;;;;;;13.59;91.91;100688.31;5097580;28;20050;-71
2022/09/11 05:57:47;;;;;;;3.15;1.83;;;;;;;13.59;92.25;100694.69;5098276;28;20024;-70
2022/09/11 06:00:13;;;;;;;4.78;2.05;;;;;;;13.57;93.12;100682.22;5094422;28;20041;-71
2022/09/11 06:02:38;;;;;;;3.58;2.30;;;;;;;13.59;92.99;100686.34;5097168;28;20024;-71
2022/09/11 06:05:04;;;;;;;5.18;2.13;;;;;;;13.59;92.44;100691.09;5096743;28;20468;-71
2022/09/11 06:07:29;;;;;;;3.65;2.30;;;;;;;13.61;92.85;100689.66;5097324;28;20024;-71
2022/09/11 06:09:56;;;;;;;6.47;2.55;;;;;;;13.60;92.80;100684.41;5095187;28;20035;-71
2022/09/11 06:12:21;;;;;;;4.35;2.50;;;;;;;13.62;92.97;100694.09;5097279;28;20073;-71
2022/09/11 06:14:47;;;;;;;3.72;2.28;;;;;;;13.68;92.63;100693.97;5095668;28;20032;-71
2022/09/11 06:17:12;;;;;;;7.10;2.60;;;;;;;13.73;92.63;100691.91;5075251;28;20392;-71
2022/09/11 06:19:38;;;;;;;6.68;3.10;;;;;;;13.73;93.81;100693.88;5096401;28;20526;-71
2022/09/11 06:22:03;;;;;;;4.85;2.60;;;;;;;13.78;94.76;100691.81;5079181;28;20031;-71
2022/09/11 06:24:29;;;;;;;7.20;2.72;;;;;;;13.84;96.88;100698.13;5076398;28;20070;-71
2022/09/11 06:26:54;;;;;;;5.30;2.80;;;;;;;13.92;98.03;100696.56;5079850;28;20563;-71
2022/09/11 06:29:20;;;;;;;4.10;2.90;;;;;;;14.01;98.19;100697.47;5094851;28;20016;-71
2022/09/11 06:31:47;;;;;;;5.95;3.42;;;;;;;14.08;100.00;100693.13;5095633;28;20747;-71
2022/09/11 06:34:13;;;;;;;7.93;3.17;;;;;;;14.17;100.00;100706.34;5060639;28;20078;-71
2022/09/11 06:36:38;;;;;;;9.27;4.28;;;;;;;14.28;100.00;100704.97;5094982;28;20031;-67
2022/09/11 06:39:04;;;;;;;6.15;3.83;;;;;;;14.37;100.00;100705.06;5097959;28;20028;-71
2022/09/11 06:41:30;;;;;;;4.20;3.00;;;;;;;14.50;100.00;100704.19;5078736;28;20035;-66
2022/09/11 06:43:56;;;;;;;8.35;3.50;;;;;;;14.62;100.00;100706.44;5056538;28;20542;-67
2022/09/11 06:46:22;;;;;;;6.30;3.90;;;;;;;14.73;100.00;100691.91;5058983;28;20040;-67
2022/09/11 06:48:49;;;;;;;7.05;4.40;;;;;;;14.86;100.00;100694.97;5038415;28;20020;-67
2022/09/11 06:51:16;;;;;;;3.78;2.78;;;;;;;15.00;100.00;100700.47;5045025;28;20056;-68
2022/09/11 06:53:42;;;;;;;5.15;2.20;;;;;;;15.16;97.87;100699.75;5058799;28;20047;-68
2022/09/11 06:56:11;;;;;;;5.07;2.83;;;;;;;15.35;96.76;100702.34;5029660;28;20400;-68
2022/09/11 06:58:38;;;;;;;5.60;2.47;;;;;;;15.56;96.06;100704.56;5019107;28;20029;-67
2022/09/11 07:01:09;;;;;;;5.43;2.55;;;;;;;15.74;96.12;100699.88;5054565;28;20492;-66
2022/09/11 07:03:36;;;;;;;6.65;2.17;;;;;;;15.94;96.84;100709.69;5045007;28;20051;-66
2022/09/11 07:06:01;;;;;;;5.28;2.42;;;;;;;16.10;96.71;100702.44;5065250;28;20751;-65
2022/09/11 07:08:27;;;;;;;7.35;2.30;;;;;;;16.29;97.43;100702.97;5057440;28;20106;-66
2022/09/11 07:10:52;;;;;;;7.10;2.80;;;;;;;16.49;98.11;100703.47;5076079;28;20035;-67
2022/09/11 07:13:18;;;;;;;8.18;2.50;;;;;;;16.68;96.13;100700.34;5029907;28;20024;-67
2022/09/11 07:15:43;;;;;;;4.82;2.33;;;;;;;16.86;96.24;100701.19;5078970;28;20028;-67
2022/09/11 07:18:10;;;;;;;4.93;2.00;;;;;;;17.03;94.55;100698.38;5077071;28;20036;-67
2022/09/11 07:20:38;;;;;;;3.70;1.83;;;;;;;17.22;94.99;100699.94;5094817;28;20042;-67
2022/09/11 07:23:03;;;;;;;5.03;1.90;;;;;;;17.38;93.35;100701.06;5054070;28;20032;-67
2022/09/11 07:25:28;;;;;;;8.60;1.90;;;;;;;17.54;91.69;100701.34;5056130;28;20047;-67
2022/09/11 07:27:54;;;;;;;3.13;1.52;;;;;;;17.67;90.45;100689.06;5073086;28;20028;-67
2022/09/11 07:30:19;;;;;;;3.60;1.50;;;;;;;17.80;89.84;100701.25;5064475;28;20433;-67
2022/09/11 07:32:45;;;;;;;4.53;1.88;;;;;;;17.91;90.35;100694.06;5042458;28;20032;-67
2022/09/11 07:35:10;;;;;;;4.53;1.70;;;;;;;18.00;89.05;100691.25;5042281;28;20030;-67
2022/09/11 07:37:36;;;;;;;4.75;1.70;;;;;;;18.07;88.78;100685.88;5036649;28;20036;-67
2022/09/11 07:40:03;;;;;;;5.63;1.70;;;;;;;18.19;88.37;100682.34;5042725;28;20472;-67
2022/09/11 07:42:28;;;;;;;7.88;2.10;;;;;;;18.27;89.27;100684.25;5078390;28;20032;-67
2022/09/11 07:44:54;;;;;;;4.05;1.77;;;;;;;18.38;88.26;100685.50;5064886;28;20029;-68
2022/09/11 07:47:20;;;;;;;4.43;1.60;;;;;;;18.54;86.66;100689.34;5027799;28;20031;-67
2022/09/11 07:49:45;;;;;;;3.65;1.83;;;;;;;18.66;85.86;100687.75;5060063;28;20024;-67
2022/09/11 07:52:11;;;;;;;4.72;1.90;;;;;;;18.79;85.76;100678.25;5035096;28;20555;-67
2022/09/11 07:54:36;;;;;;;5.30;1.80;;;;;;;18.91;84.86;100685.91;5057257;28;20028;-67
2022/09/11 07:57:02;;;;;;;5.47;2.30;;;;;;;19.03;85.41;100680.31;5058546;28;20036;-67
2022/09/11 07:59:27;;;;;;;5.60;2.03;;;;;;;19.16;84.75;100676.34;5045684;28;20094;-68
2022/09/11 08:01:54;;;;;;;4.80;1.77;;;;;;;19.29;83.76;100685.66;5091514;28;20046;-67
2022/09/11 08:04:19;;;;;;;6.85;2.25;;;;;;;19.37;83.63;100679.09;5074306;28;20043;-67
2022/09/11 08:06:45;;;;;;;4.53;1.83;;;;;;;19.49;82.93;100675.47;5059447;28;20472;-67
2022/09/11 08:09:14;;;;;;;4.40;1.80;;;;;;;19.59;82.70;100671.38;5076029;28;20028;-67
2022/09/11 08:11:45;;;;;;;4.97;1.88;;;;;;;19.64;83.00;100682.44;5059132;28;20028;-68
2022/09/11 08:14:12;;;;;;;6.65;2.03;;;;;;;19.76;83.31;100673.19;5073252;28;20036;-67
2022/09/11 08:16:37;;;;;;;4.63;1.50;;;;;;;19.81;81.14;100670.94;5061635;28;20055;-67
2022/09/11 08:19:03;;;;;;;4.55;1.55;;;;;;;19.91;80.92;100671.63;5075436;28;20451;-68
2022/09/11 08:21:29;;;;;;;3.90;1.30;;;;;;;20.01;79.53;100674.81;5077717;28;20392;-68
2022/09/11 08:23:54;;;;;;;5.25;1.75;;;;;;;20.07;79.73;100666.94;5040032;28;20028;-68
2022/09/11 08:26:25;;;;;;;4.97;1.60;;;;;;;20.17;79.71;100660.81;5060426;28;20020;-68
2022/09/11 08:28:51;;;;;;;5.00;1.58;;;;;;;20.22;80.00;100660.53;5057644;28;20067;-68
2022/09/11 08:31:18;;;;;;;4.47;1.25;;;;;;;20.28;80.60;100658.28;5057744;28;20043;-68
2022/09/11 08:33:44;;;;;;;5.03;1.63;;;;;;;20.37;80.45;100661.00;5058064;28;20114;-68
2022/09/11 08:36:10;;;;;;;6.03;1.33;;;;;;;20.42;80.15;100664.41;5047587;28;20036;-68
2022/09/11 08:38:36;;;;;;;4.63;1.65;;;;;;;20.50;79.61;100666.25;5079217;28;20426;-67
2022/09/11 08:41:19;;;;;;;5.68;1.50;;;;;;;20.59;79.91;100656.81;5058365;28;20040;-67
2022/09/11 08:43:45;;;;;;;;;;;;;;;20.67;79.42;100662.34;5061398;28;20115;-68
2022/09/11 08:46:11;;;;;;;5.07;1.50;;;;;;;20.75;79.67;100660.53;5063768;28;19909;-67
2022/09/11 08:48:51;;;;;;;5.47;1.67;;;;;;;20.86;79.50;100655.19;5062769;28;20042;-68
2022/09/11 08:51:16;;;;;;;3.55;1.20;;;;;;;21.00;78.59;100655.56;5064283;28;20039;-67
2022/09/11 08:53:42;;;;;;;3.67;1.10;;;;;;;21.13;78.06;100653.50;5081672;28;20111;-68
2022/09/11 08:56:13;;;;;;;1.98;1.00;;;;;;;21.28;77.79;100649.06;5026101;28;20024;-67
2022/09/11 08:58:45;;;;;;;4.38;1.27;;;;;;;21.45;76.81;100653.56;5039377;28;20068;-67
2022/09/11 09:01:18;;;;;;;3.45;0.98;;;;;;;21.58;76.36;100652.28;5096202;28;20063;-67
2022/09/11 09:03:52;;;;;;;2.67;1.00;;;;;;;21.73;74.81;100650.63;5065082;28;20028;-67
2022/09/11 09:06:24;;;;;;;2.17;1.10;;;;;;;21.90;74.15;100655.91;5056757;28;20388;-67
2022/09/11 09:09:14;;;;;;;3.78;1.05;;;;;;;22.04;74.55;100659.06;5099474;28;20024;-67
2022/09/11 09:11:46;;;;;;;6.07;1.17;;;;;;;22.23;72.41;100663.13;5077468;28;20032;-68
2022/09/11 09:14:20;;;;;;;4.13;1.20;;;;;;;22.37;71.70;100663.47;5099700;28;20036;-67
2022/09/11 09:17:21;;;;;;;6.75;1.30;;;;;;;22.60;67.70;100657.91;5097861;28;20028;-68
2022/09/11 09:19:46;;;;;;;4.63;1.00;;;;;;;22.73;68.64;100667.03;5018104;28;20041;-68
2022/09/11 09:22:18;;;;;;;4.68;0.82;;;;;;;22.84;67.87;100662.41;5017857;28;20048;-67
2022/09/11 09:25:01;;;;;;;4.85;1.00;;;;;;;22.94;67.40;100656.16;5000325;28;20033;-68
2022/09/11 09:27:44;;;;;;;;;;;;;;;23.05;66.11;100662.06;4989853;28;20056;-67
2022/09/11 09:30:15;;;;;;;4.55;1.13;;;;;;;23.16;65.75;100662.25;4999382;28;19948;-67
2022/09/11 09:32:49;;;;;;;3.17;1.10;;;;;;;23.26;64.28;100661.63;5016810;28;20089;-68
2022/09/11 09:35:18;;;;;;;4.03;0.90;;;;;;;23.42;63.90;100659.47;4987382;28;20089;-67
2022/09/11 09:37:44;;;;;;;2.92;0.88;;;;;;;23.53;63.61;100656.03;4984172;28;20057;-67
2022/09/11 09:40:14;;;;;;;3.38;1.00;;;;;;;23.63;62.56;100659.03;5000151;28;20037;-68
2022/09/11 09:42:58;;;;;;;5.63;0.93;;;;;;;23.76;62.97;100665.34;4998135;28;20629;-67
2022/09/11 09:45:38;;;;;;;3.08;0.90;;;;;;;23.92;61.93;100661.56;5001589;28;20038;-67
2022/09/11 09:48:05;;;;;;;4.30;1.10;;;;;;;23.99;61.64;100664.50;4982660;28;20045;-67
2022/09/11 09:50:34;;;;;;;1.80;0.68;;;;;;;24.02;60.74;100660.91;4969816;28;20082;-68
2022/09/11 09:53:10;;;;;;;3.45;0.88;;;;;;;24.07;59.96;100650.06;4980131;28;20051;-68
2022/09/11 09:55:37;;;;;;;3.80;1.05;;;;;;;24.14;58.39;100660.66;5077059;28;20035;-68
2022/09/11 09:58:03;;;;;;;4.07;0.90;;;;;;;24.19;58.21;100657.50;5076019;28;20044;-68
2022/09/11 10:00:31;;;;;;;2.47;0.80;;;;;;;24.21;57.95;100646.59;5078756;28;20067;-68
2022/09/11 10:02:57;;;;;;;4.03;0.70;;;;;;;24.21;57.66;100648.59;5061593;28;20032;-68
2022/09/11 10:05:41;;;;;;;2.55;0.60;;;;;;;24.23;57.16;100640.53;5060543;28;20040;-68
2022/09/11 10:08:30;;;;;;;5.20;0.70;;;;;;;24.27;57.16;100650.72;5052680;28;20020;-68
2022/09/11 10:10:57;;;;;;;4.18;0.85;;;;;;;24.29;55.89;100636.97;5058921;28;20071;-67
2022/09/11 10:13:24;;;;;;;2.13;0.80;;;;;;;24.33;56.07;100642.69;5062107;28;20516;-67
2022/09/11 10:15:51;;;;;;;3.42;0.70;;;;;;;24.31;56.60;100640.22;5063195;28;20023;-68
2022/09/11 10:18:36;;;;;;;3.13;0.80;;;;;;;24.40;56.22;100644.81;5057916;28;20200;-68
2022/09/11 10:21:11;;;;;;;1.90;0.70;;;;;;;24.46;55.71;100635.63;5064938;28;20560;-67
2022/09/11 10:23:55;;;;;;;2.22;0.90;;;;;;;24.51;57.96;100628.75;5078220;28;20038;-67
2022/09/11 10:26:42;;;;;;;2.13;0.70;;;;;;;24.56;57.13;100634.09;5070299;28;20024;-68
2022/09/11 10:29:28;;;;;;;2.47;0.70;;;;;;;24.62;57.79;100640.25;5043300;28;20422;-67
2022/09/11 10:31:58;;;;;;;3.25;0.93;;;;;;;24.74;57.23;100635.16;5075605;28;20059;-67
2022/09/11 10:34:25;;;;;;;2.55;0.90;;;;;;;24.80;56.59;100624.25;5058962;28;20028;-67
2022/09/11 10:36:55;;;;;;;1.88;0.70;;;;;;;24.89;55.98;100633.28;5044272;28;20645;-68
2022/09/11 10:39:21;;;;;;;4.35;0.80;;;;;;;24.96;55.87;100641.88;5056196;28;20029;-68
2022/09/11 10:41:51;;;;;;;3.05;0.70;;;;;;;25.04;55.49;100627.75;5038588;28;20032;-67
2022/09/11 10:44:16;;;;;;;5.07;0.93;;;;;;;25.12;54.51;100624.56;5031164;28;20059;-67
2022/09/11 10:46:42;;;;;;;2.40;0.70;;;;;;;25.12;54.16;100630.25;5070368;28;20443;-67
2022/09/11 10:49:15;;;;;;;4.60;0.90;;;;;;;25.15;54.37;100623.00;5062868;28;20035;-67
2022/09/11 10:51:41;;;;;;;;;;;;;;;25.19;53.59;100619.00;5065174;28;20024;-67
2022/09/11 10:54:36;;;;;;;4.18;0.90;;;;;;;25.25;54.76;100619.47;5077201;28;19967;-67
2022/09/11 10:58:00;;;;;;;3.05;0.73;;;;;;;25.28;54.12;100615.03;5095345;28;20075;-67
2022/09/11 11:00:28;;;;;;;2.72;0.60;;;;;;;25.26;54.40;100620.28;5031347;28;20110;-67
2022/09/11 11:03:05;;;;;;;2.90;0.70;;;;;;;25.34;55.06;100621.97;4999477;28;20091;-67
2022/09/11 11:05:53;;;;;;;2.95;0.57;;;;;;;25.48;53.86;100624.94;4997223;28;20111;-68
2022/09/11 11:08:36;;;;;;;2.55;0.70;;;;;;;25.59;54.07;100614.47;5001397;28;20433;-67
2022/09/11 11:11:02;;;;;;;1.67;0.60;;;;;;;25.70;53.97;100613.75;4995843;28;20045;-67
2022/09/11 11:13:37;;;;;;;1.98;0.55;;;;;;;25.78;53.03;100619.09;5020418;28;20032;-67
2022/09/11 11:16:11;;;;;;;3.35;0.60;;;;;;;25.93;51.51;100611.47;5033724;28;20029;-67
2022/09/11 11:19:06;;;;;;;3.28;0.60;;;;;;;25.98;51.14;100616.00;5002440;28;20045;-67
2022/09/11 11:21:53;;;;;;;2.47;0.60;;;;;;;26.06;50.17;100603.44;4991949;28;20508;-67
2022/09/11 11:24:45;;;;;;;3.92;0.75;;;;;;;26.14;51.59;100607.16;5013670;28;20157;-67
2022/09/11 11:27:16;;;;;;;3.10;0.68;;;;;;;26.25;50.61;100600.28;5013960;28;20559;-67
2022/09/11 11:30:10;;;;;;;2.40;0.70;;;;;;;26.35;50.08;100595.03;5033343;28;20033;-68
2022/09/11 11:32:42;;;;;;;4.30;0.50;;;;;;;26.45;49.45;100586.53;5074351;28;20044;-67
2022/09/11 11:35:26;;;;;;;1.70;0.50;;;;;;;26.51;50.25;100596.38;5078423;28;20032;-67
2022/09/11 11:37:54;;;;;;;2.55;0.60;;;;;;;26.57;50.80;100584.59;5062097;28;20032;-67
2022/09/11 11:40:23;;;;;;;4.00;0.85;;;;;;;26.73;49.15;100596.44;5025019;28;20039;-67